Time;durP1;ratioP1;P1;durP2;ratioP2;P2;SDS_P1;SDS_P2;PMS_P1;PMS_P2;Temp;Humidity;BMP_temperature;BMP_pressure;BME280_temperature;BME280_humidity;BME280_pressure;Samples;Min_cycle;Max_cycle;Signal;HPM_P1;HPM_P2
2022/05/15 00:01:10;;;;;;;18.63;4.97;;;;;;;;;;5074034;28;20074;-91
2022/05/15 00:03:36;;;;;;;16.02;4.43;;;;;;;;;;5057260;28;20090;-92
2022/05/15 00:06:03;;;;;;;13.43;4.28;;;;;;;;;;5064068;28;20051;-93
2022/05/15 00:08:31;;;;;;;14.30;4.40;;;;;;;;;;5397127;22;22138;-93
2022/05/15 00:10:58;;;;;;;16.65;3.92;;;;;;;;;;5319265;22;20045;-92
2022/05/15 00:13:25;;;;;;;19.05;5.53;;;;;;;;;;5080310;28;20052;-90
2022/05/15 00:15:51;;;;;;;15.70;4.90;;;;;;;;;;5067458;28;20166;-90
2022/05/15 00:18:18;;;;;;;13.77;4.45;;;;;;;;;;5075152;28;20044;-92
2022/05/15 00:20:44;;;;;;;12.82;5.03;;;;;;;;;;5072959;28;20121;-89
2022/05/15 00:23:11;;;;;;;19.05;4.35;;;;;;;;;;5078332;28;20050;-92
2022/05/15 00:25:37;;;;;;;17.55;4.75;;;;;;;;;;5106793;23;20048;-92
2022/05/15 00:28:04;;;;;;;12.52;4.20;;;;;;;;;;5096760;28;20036;-89
2022/05/15 00:30:31;;;;;;;15.00;4.68;;;;;;;;;;5074901;28;20555;-89
2022/05/15 00:32:57;;;;;;;15.43;4.80;;;;;;;;;;5152879;23;20079;-92
2022/05/15 00:35:23;;;;;;;18.20;4.80;;;;;;;;;;5063954;28;20043;-88
2022/05/15 00:37:49;;;;;;;18.08;4.68;;;;;;;;;;5066610;28;20097;-93
2022/05/15 00:40:17;;;;;;;15.27;4.38;;;;;;;;;;5065353;28;20087;-94
2022/05/15 00:42:43;;;;;;;14.82;4.45;;;;;;;;;;5077503;28;20043;-93
2022/05/15 00:45:10;;;;;;;13.43;5.18;;;;;;;;;;5059833;28;20043;-92
2022/05/15 00:47:36;;;;;;;16.20;4.80;;;;;;;;;;5061526;28;20483;-93
2022/05/15 00:50:05;;;;;;;17.73;4.63;;;;;;;;;;5088773;28;20039;-89
2022/05/15 00:52:33;;;;;;;15.18;5.07;;;;;;;;;;5066976;28;20039;-91
2022/05/15 00:55:08;;;;;;;17.98;5.05;;;;;;;;;;5065394;28;20486;-92
2022/05/15 00:57:47;;;;;;;18.40;5.00;;;;;;;;;;5080081;28;20384;-93
2022/05/15 01:00:20;;;;;;;19.17;4.88;;;;;;;;;;5080207;28;20487;-89
2022/05/15 01:02:51;;;;;;;19.13;4.97;;;;;;;;;;5063783;28;20050;-93
2022/05/15 01:05:17;;;;;;;20.70;5.38;;;;;;;;;;5063168;28;20040;-91
2022/05/15 01:07:43;;;;;;;14.15;5.18;;;;;;;;;;5068016;28;20039;-92
2022/05/15 01:10:10;;;;;;;21.33;5.50;;;;;;;;;;5071334;28;20076;-93
2022/05/15 01:12:36;;;;;;;18.83;6.00;;;;;;;;;;5072721;28;20392;-91
2022/05/15 01:15:04;;;;;;;18.75;4.32;;;;;;;;;;5070388;28;20070;-89
2022/05/15 01:17:31;;;;;;;12.23;4.60;;;;;;;;;;5069204;28;20040;-90
2022/05/15 01:20:08;;;;;;;16.23;4.85;;;;;;;;;;5071234;28;20082;-90
2022/05/15 01:22:34;;;;;;;14.23;4.05;;;;;;;;;;5068133;28;20049;-92
2022/05/15 01:25:02;;;;;;;10.75;4.25;;;;;;;;;;5067904;28;20095;-92
2022/05/15 01:27:28;;;;;;;15.93;4.70;;;;;;;;;;5059984;28;20490;-90
2022/05/15 01:29:54;;;;;;;19.25;5.55;;;;;;;;;;5058841;28;20039;-90
2022/05/15 01:32:20;;;;;;;18.73;5.45;;;;;;;;;;5075340;28;20059;-91
2022/05/15 01:34:46;;;;;;;14.95;4.82;;;;;;;;;;5058874;28;20546;-90
2022/05/15 01:37:12;;;;;;;12.73;5.15;;;;;;;;;;5058638;28;20126;-91
2022/05/15 01:39:38;;;;;;;10.63;4.25;;;;;;;;;;5058942;28;20054;-91
2022/05/15 01:42:05;;;;;;;15.25;4.30;;;;;;;;;;5058650;28;20044;-91
2022/05/15 01:44:31;;;;;;;15.75;4.35;;;;;;;;;;5077735;28;20118;-93
2022/05/15 01:46:57;;;;;;;16.55;5.50;;;;;;;;;;5071175;28;20043;-93
2022/05/15 01:49:23;;;;;;;13.77;4.22;;;;;;;;;;5061555;28;20036;-90
2022/05/15 01:51:49;;;;;;;21.67;5.63;;;;;;;;;;5058656;28;20040;-91
2022/05/15 01:54:15;;;;;;;14.40;4.97;;;;;;;;;;5080366;28;20043;-89
2022/05/15 01:56:42;;;;;;;16.25;5.60;;;;;;;;;;5070446;28;20065;-94
2022/05/15 01:59:09;;;;;;;15.65;4.68;;;;;;;;;;5067671;28;20039;-93
2022/05/15 02:01:35;;;;;;;16.60;5.43;;;;;;;;;;5068159;28;20044;-92
2022/05/15 02:04:01;;;;;;;19.70;4.85;;;;;;;;;;5089910;22;20024;-94
2022/05/15 02:06:52;;;;;;;14.18;5.05;;;;;;;;;;5173042;22;20053;-93
2022/05/15 02:09:18;;;;;;;;;;;;;;;;;;5046541;28;20059;-93
2022/05/15 02:11:44;;;;;;;19.52;4.97;;;;;;;;;;5047685;28;19917;-95
2022/05/15 02:14:11;;;;;;;16.67;4.93;;;;;;;;;;5051054;28;20023;-93
2022/05/15 02:16:37;;;;;;;16.85;4.55;;;;;;;;;;5049856;28;20040;-93
2022/05/15 02:19:04;;;;;;;13.07;4.20;;;;;;;;;;5040671;28;20070;-93
2022/05/15 02:21:30;;;;;;;14.23;4.30;;;;;;;;;;5060648;28;20468;-92
2022/05/15 02:23:57;;;;;;;12.68;4.18;;;;;;;;;;5050072;28;20036;-94
2022/05/15 02:26:23;;;;;;;14.63;4.72;;;;;;;;;;5048478;28;20048;-90
2022/05/15 02:28:49;;;;;;;14.77;4.25;;;;;;;;;;5042681;28;20041;-91
2022/05/15 02:31:16;;;;;;;13.57;4.22;;;;;;;;;;5042005;28;20139;-93
2022/05/15 02:33:42;;;;;;;8.88;3.53;;;;;;;;;;5050788;28;20437;-93
2022/05/15 02:36:08;;;;;;;7.03;2.63;;;;;;;;;;5048654;28;20048;-93
2022/05/15 02:38:36;;;;;;;5.60;3.00;;;;;;;;;;5066526;28;20044;-92
2022/05/15 02:41:02;;;;;;;11.23;3.78;;;;;;;;;;5042678;28;20083;-92
2022/05/15 02:43:28;;;;;;;9.93;3.42;;;;;;;;;;5050210;28;20040;-93
2022/05/15 02:45:54;;;;;;;5.97;3.28;;;;;;;;;;5048772;28;20052;-91
2022/05/15 02:51:06;;;;;;;27.83;5.15;;;;;;;;;;5071138;28;20078;-93
2022/05/15 02:53:40;;;;;;;11.73;5.25;;;;;;;;;;5057175;28;20041;-93
2022/05/15 02:56:08;;;;;;;14.80;5.35;;;;;;;;;;5045738;28;20145;-91
2022/05/15 02:58:35;;;;;;;13.80;4.00;;;;;;;;;;5042636;28;20053;-91
2022/05/15 03:01:01;;;;;;;9.07;4.70;;;;;;;;;;5052442;28;20036;-92
2022/05/15 03:03:27;;;;;;;8.38;3.70;;;;;;;;;;5055506;28;20050;-92
2022/05/15 03:05:54;;;;;;;10.40;3.72;;;;;;;;;;5052082;28;20047;-88
2022/05/15 03:08:20;;;;;;;8.48;3.97;;;;;;;;;;5041166;28;20064;-91
2022/05/15 03:10:46;;;;;;;4.00;2.83;;;;;;;;;;5049357;28;20044;-94
2022/05/15 03:13:12;;;;;;;8.77;4.10;;;;;;;;;;5053599;28;20041;-94
2022/05/15 03:15:38;;;;;;;6.20;3.55;;;;;;;;;;5051397;28;20435;-92
2022/05/15 03:18:05;;;;;;;7.32;4.18;;;;;;;;;;5049586;28;20059;-91
2022/05/15 03:20:31;;;;;;;6.18;3.05;;;;;;;;;;5043628;28;20032;-92
2022/05/15 03:22:57;;;;;;;8.00;3.15;;;;;;;;;;5043677;28;20040;-96
2022/05/15 03:25:26;;;;;;;5.15;2.30;;;;;;;;;;5044091;28;20063;-94
2022/05/15 03:27:52;;;;;;;3.42;2.53;;;;;;;;;;5044943;28;20453;-94
2022/05/15 03:30:18;;;;;;;3.15;2.50;;;;;;;;;;5040975;28;20064;-91
2022/05/15 03:32:44;;;;;;;4.18;2.55;;;;;;;;;;5047279;28;20048;-90
2022/05/15 03:35:11;;;;;;;4.72;2.30;;;;;;;;;;5049139;28;20044;-94
2022/05/15 03:37:38;;;;;;;5.07;3.13;;;;;;;;;;5045251;28;20040;-93
2022/05/15 03:40:05;;;;;;;3.90;2.97;;;;;;;;;;5067527;28;20136;-87
2022/05/15 03:42:31;;;;;;;3.17;2.63;;;;;;;;;;5048719;28;20020;-92
2022/05/15 03:44:57;;;;;;;3.85;2.90;;;;;;;;;;5047266;28;20080;-95
2022/05/15 03:47:24;;;;;;;3.50;1.88;;;;;;;;;;5064001;28;20036;-92
2022/05/15 03:49:50;;;;;;;4.78;2.08;;;;;;;;;;5046714;28;20040;-93
2022/05/15 03:52:16;;;;;;;6.38;2.30;;;;;;;;;;5052668;28;20045;-93
2022/05/15 03:54:42;;;;;;;2.47;2.05;;;;;;;;;;5048894;28;20043;-93
2022/05/15 03:57:09;;;;;;;6.05;2.13;;;;;;;;;;5051745;28;20044;-93
2022/05/15 03:59:36;;;;;;;7.20;3.42;;;;;;;;;;5048994;28;20044;-91
2022/05/15 04:02:04;;;;;;;4.43;2.30;;;;;;;;;;5045373;28;20041;-90
2022/05/15 04:04:30;;;;;;;6.25;3.30;;;;;;;;;;5061456;28;20037;-95
2022/05/15 04:06:57;;;;;;;5.00;3.20;;;;;;;;;;5046870;28;20045;-92
2022/05/15 04:09:23;;;;;;;7.47;3.38;;;;;;;;;;5048647;28;20048;-93
2022/05/15 04:11:49;;;;;;;7.60;3.65;;;;;;;;;;5045245;28;20078;-93
2022/05/15 04:14:15;;;;;;;8.30;3.70;;;;;;;;;;5050760;28;20307;-94
2022/05/15 04:16:41;;;;;;;7.57;3.10;;;;;;;;;;5048565;28;20044;-95
2022/05/15 04:19:07;;;;;;;9.27;3.45;;;;;;;;;;5054235;28;20052;-94
2022/05/15 04:21:37;;;;;;;9.65;3.35;;;;;;;;;;5064351;28;20047;-94
2022/05/15 04:24:14;;;;;;;3.95;2.38;;;;;;;;;;5051968;28;20507;-91
2022/05/15 04:26:41;;;;;;;5.13;3.15;;;;;;;;;;5052097;28;20051;-93
2022/05/15 04:29:07;;;;;;;6.82;2.67;;;;;;;;;;5052216;28;20040;-93
2022/05/15 04:31:34;;;;;;;10.75;3.22;;;;;;;;;;5052268;28;20406;-94
2022/05/15 04:34:00;;;;;;;8.25;3.55;;;;;;;;;;5050802;28;20045;-93
2022/05/15 04:36:26;;;;;;;12.10;4.32;;;;;;;;;;5051244;28;20506;-93
2022/05/15 04:38:52;;;;;;;9.73;3.95;;;;;;;;;;5051241;28;20041;-96
2022/05/15 04:41:18;;;;;;;7.90;4.13;;;;;;;;;;5067651;28;20127;-95
2022/05/15 04:43:44;;;;;;;5.72;3.25;;;;;;;;;;5065311;28;20143;-95
2022/05/15 04:46:10;;;;;;;8.27;4.45;;;;;;;;;;5046603;28;20076;-88
2022/05/15 04:48:40;;;;;;;6.07;3.97;;;;;;;;;;5058712;28;20044;-94
2022/05/15 04:51:06;;;;;;;9.45;5.20;;;;;;;;;;5043956;28;20044;-92
2022/05/15 04:53:32;;;;;;;20.42;6.22;;;;;;;;;;5043147;28;20036;-90
2022/05/15 04:55:58;;;;;;;18.00;6.97;;;;;;;;;;5056801;28;20100;-88
2022/05/15 04:58:24;;;;;;;13.32;6.30;;;;;;;;;;5044049;28;20049;-92
2022/05/15 05:00:50;;;;;;;17.48;6.35;;;;;;;;;;5051995;28;20098;-92
2022/05/15 05:03:17;;;;;;;14.98;6.57;;;;;;;;;;5060236;28;20097;-95
2022/05/15 05:05:42;;;;;;;20.95;6.18;;;;;;;;;;5040711;28;20032;-92
2022/05/15 05:08:09;;;;;;;17.00;5.82;;;;;;;;;;5044929;28;20049;-92
2022/05/15 05:10:36;;;;;;;17.52;6.55;;;;;;;;;;5045879;28;20052;-89
2022/05/15 05:13:02;;;;;;;14.80;5.20;;;;;;;;;;5045690;28;20036;-96
2022/05/15 05:15:28;;;;;;;13.50;4.88;;;;;;;;;;5039459;28;20040;-85
2022/05/15 05:17:54;;;;;;;17.30;5.82;;;;;;;;;;5044418;28;20043;-88
2022/05/15 05:20:20;;;;;;;16.92;5.15;;;;;;;;;;5060426;28;20053;-91
2022/05/15 05:22:46;;;;;;;18.25;5.55;;;;;;;;;;5043507;28;20063;-90
2022/05/15 05:25:12;;;;;;;12.23;5.60;;;;;;;;;;5059535;28;20044;-95
2022/05/15 05:27:39;;;;;;;16.75;6.03;;;;;;;;;;5044967;28;20133;-90
2022/05/15 05:30:06;;;;;;;11.73;5.25;;;;;;;;;;5043005;28;20253;-93
2022/05/15 05:32:32;;;;;;;9.70;5.05;;;;;;;;;;5044909;28;20044;-94
2022/05/15 05:34:58;;;;;;;14.98;5.15;;;;;;;;;;5060995;28;20396;-86
2022/05/15 05:37:24;;;;;;;14.32;5.40;;;;;;;;;;5039738;28;20447;-85
2022/05/15 05:39:50;;;;;;;19.17;5.30;;;;;;;;;;5038769;28;20094;-87
2022/05/15 05:42:19;;;;;;;16.08;5.80;;;;;;;;;;5038977;28;20053;-93
2022/05/15 05:44:45;;;;;;;13.57;5.18;;;;;;;;;;5043383;28;20109;-90
2022/05/15 05:47:11;;;;;;;24.35;6.18;;;;;;;;;;5040021;28;20045;-88
2022/05/15 05:49:37;;;;;;;10.25;3.90;;;;;;;;;;5039561;28;20032;-86
2022/05/15 05:52:03;;;;;;;12.60;4.78;;;;;;;;;;5043349;28;20023;-92
2022/05/15 05:54:29;;;;;;;11.05;5.00;;;;;;;;;;5049099;28;20440;-93
2022/05/15 05:56:55;;;;;;;20.45;5.10;;;;;;;;;;5041513;28;20335;-91
2022/05/15 05:59:21;;;;;;;13.85;5.60;;;;;;;;;;5061767;28;20040;-90
2022/05/15 06:01:47;;;;;;;14.35;6.28;;;;;;;;;;5038396;28;20374;-94
2022/05/15 06:06:57;;;;;;;16.25;6.88;;;;;;;;;;5052360;28;20045;-92
2022/05/15 06:09:23;;;;;;;16.35;6.82;;;;;;;;;;5034889;28;20400;-90
2022/05/15 06:11:49;;;;;;;16.17;6.78;;;;;;;;;;5037643;28;20040;-90
2022/05/15 06:14:15;;;;;;;13.48;6.30;;;;;;;;;;5038492;28;20053;-89
2022/05/15 06:16:41;;;;;;;18.63;7.35;;;;;;;;;;5039156;28;20067;-89
2022/05/15 06:19:08;;;;;;;14.07;6.72;;;;;;;;;;5038196;28;20045;-90
2022/05/15 06:21:34;;;;;;;16.35;5.90;;;;;;;;;;5036970;28;20052;-90
2022/05/15 06:24:00;;;;;;;13.68;5.45;;;;;;;;;;5038628;28;20567;-91
2022/05/15 06:26:26;;;;;;;12.90;5.82;;;;;;;;;;5054159;28;20047;-92
2022/05/15 06:28:52;;;;;;;13.75;5.82;;;;;;;;;;5037762;28;20055;-90
2022/05/15 06:31:18;;;;;;;16.60;5.63;;;;;;;;;;5045704;28;20385;-88
2022/05/15 06:33:44;;;;;;;12.70;5.93;;;;;;;;;;5034021;28;20048;-87
2022/05/15 06:36:10;;;;;;;13.82;5.95;;;;;;;;;;5051105;28;20165;-89
2022/05/15 06:38:40;;;;;;;11.70;5.60;;;;;;;;;;5052589;28;20083;-91
2022/05/15 06:41:07;;;;;;;12.18;5.45;;;;;;;;;;5036958;28;20395;-88
2022/05/15 06:43:33;;;;;;;14.55;6.07;;;;;;;;;;5052536;28;20044;-90
2022/05/15 06:45:59;;;;;;;12.50;5.50;;;;;;;;;;5041167;28;20048;-95
2022/05/15 06:48:25;;;;;;;12.73;5.40;;;;;;;;;;5041318;28;20040;-93
2022/05/15 06:50:51;;;;;;;14.80;5.45;;;;;;;;;;5041952;28;20044;-88
2022/05/15 06:53:17;;;;;;;16.50;5.57;;;;;;;;;;5039380;28;20090;-91
2022/05/15 06:58:28;;;;;;;13.07;5.53;;;;;;;;;;5055013;28;20045;-91
2022/05/15 07:00:54;;;;;;;12.50;4.68;;;;;;;;;;5041988;28;20131;-89
2022/05/15 07:03:21;;;;;;;13.48;5.75;;;;;;;;;;5039157;28;20036;-90
2022/05/15 07:05:47;;;;;;;12.90;5.47;;;;;;;;;;5038227;28;20036;-90
2022/05/15 07:08:15;;;;;;;13.07;5.20;;;;;;;;;;5039293;28;20102;-86
2022/05/15 07:10:41;;;;;;;16.20;6.32;;;;;;;;;;5037460;28;20045;-90
2022/05/15 07:13:07;;;;;;;12.80;5.57;;;;;;;;;;5036945;28;20040;-86
2022/05/15 07:15:33;;;;;;;12.05;5.68;;;;;;;;;;5054511;28;20048;-85
2022/05/15 07:17:59;;;;;;;11.85;4.45;;;;;;;;;;5039163;28;20039;-90
2022/05/15 07:20:25;;;;;;;12.23;5.15;;;;;;;;;;5055786;28;20539;-90
2022/05/15 07:22:51;;;;;;;11.80;5.20;;;;;;;;;;5038904;28;20081;-85
2022/05/15 07:25:17;;;;;;;13.13;6.05;;;;;;;;;;5037168;28;20135;-87
2022/05/15 07:27:43;;;;;;;11.95;4.80;;;;;;;;;;5037859;28;20040;-91
2022/05/15 07:30:10;;;;;;;8.00;4.68;;;;;;;;;;5037935;28;20048;-86
2022/05/15 07:32:35;;;;;;;13.52;5.68;;;;;;;;;;5037363;28;20083;-89
2022/05/15 07:35:01;;;;;;;10.80;4.90;;;;;;;;;;5038117;28;20400;-88
2022/05/15 07:37:27;;;;;;;11.85;4.32;;;;;;;;;;5037263;28;20095;-90
2022/05/15 07:39:54;;;;;;;11.13;4.95;;;;;;;;;;5038349;28;20041;-93
2022/05/15 07:42:20;;;;;;;10.60;4.90;;;;;;;;;;5056949;28;20325;-90
2022/05/15 07:44:47;;;;;;;10.57;4.70;;;;;;;;;;5040924;28;20044;-88
2022/05/15 07:47:13;;;;;;;10.68;4.90;;;;;;;;;;5040422;28;20083;-91
2022/05/15 07:49:40;;;;;;;13.82;4.38;;;;;;;;;;5057017;28;20079;-84
2022/05/15 07:52:06;;;;;;;12.77;4.35;;;;;;;;;;5040484;28;20067;-88
2022/05/15 07:54:33;;;;;;;10.88;4.07;;;;;;;;;;5040445;28;20479;-86
2022/05/15 07:56:59;;;;;;;11.95;4.90;;;;;;;;;;5056650;28;20060;-85
2022/05/15 07:59:25;;;;;;;13.20;4.95;;;;;;;;;;5040131;28;20102;-90
2022/05/15 08:01:54;;;;;;;11.65;4.47;;;;;;;;;;5040060;28;20043;-87
2022/05/15 08:04:20;;;;;;;12.85;3.97;;;;;;;;;;5056935;28;20123;-86
2022/05/15 08:09:30;;;;;;;12.82;4.63;;;;;;;;;;5036900;28;20053;-85
2022/05/15 08:11:56;;;;;;;9.70;3.67;;;;;;;;;;5037256;28;20476;-89
2022/05/15 08:14:22;;;;;;;11.30;4.32;;;;;;;;;;5036810;28;20091;-87
2022/05/15 08:16:48;;;;;;;10.65;4.05;;;;;;;;;;5037253;28;20098;-92
2022/05/15 08:24:45;;;;;;;8.50;3.47;;;;;;;;;;5038307;28;20420;-86
2022/05/15 08:27:11;;;;;;;12.20;4.00;;;;;;;;;;5019358;28;20041;-91
2022/05/15 08:29:38;;;;;;;10.90;4.00;;;;;;;;;;5036247;28;20036;-90
2022/05/15 08:32:04;;;;;;;12.00;3.97;;;;;;;;;;5019939;28;20037;-90
2022/05/15 08:34:30;;;;;;;10.65;3.88;;;;;;;;;;5019605;28;20178;-88
2022/05/15 08:36:56;;;;;;;10.05;4.05;;;;;;;;;;5019757;28;20135;-87
2022/05/15 08:39:22;;;;;;;12.20;3.67;;;;;;;;;;5019438;28;20145;-88
2022/05/15 08:41:51;;;;;;;12.40;4.20;;;;;;;;;;5015486;28;20496;-90
2022/05/15 08:44:33;;;;;;;9.20;4.20;;;;;;;;;;5015694;28;20041;-86
2022/05/15 08:47:08;;;;;;;9.85;3.88;;;;;;;;;;5035260;28;20036;-88
2022/05/15 08:49:38;;;;;;;14.32;4.50;;;;;;;;;;5040652;28;20131;-86
2022/05/15 08:52:16;;;;;;;11.25;3.58;;;;;;;;;;5058459;28;20072;-91
2022/05/15 08:55:02;;;;;;;10.63;3.80;;;;;;;;;;5059050;28;20040;-91
2022/05/15 08:57:35;;;;;;;10.93;3.75;;;;;;;;;;5057156;28;20044;-85
2022/05/15 09:00:02;;;;;;;8.85;3.92;;;;;;;;;;5040385;28;20377;-86
2022/05/15 09:02:28;;;;;;;12.43;3.75;;;;;;;;;;5040854;28;20051;-85
2022/05/15 09:04:55;;;;;;;10.30;3.75;;;;;;;;;;5040791;28;20391;-85
2022/05/15 09:07:24;;;;;;;10.15;3.63;;;;;;;;;;5039256;28;20047;-87
2022/05/15 09:09:50;;;;;;;11.23;3.72;;;;;;;;;;5056615;28;20601;-90
2022/05/15 09:12:20;;;;;;;11.27;4.10;;;;;;;;;;5055804;28;20125;-88
2022/05/15 09:14:46;;;;;;;13.15;3.85;;;;;;;;;;5055234;28;20047;-85
2022/05/15 09:17:17;;;;;;;12.95;4.18;;;;;;;;;;5055940;28;20052;-86
2022/05/15 09:19:44;;;;;;;10.38;3.67;;;;;;;;;;5055215;28;20066;-88
2022/05/15 09:22:12;;;;;;;12.32;3.85;;;;;;;;;;5070935;28;20054;-88
2022/05/15 09:24:42;;;;;;;12.98;4.00;;;;;;;;;;5055092;28;20047;-89
2022/05/15 09:27:12;;;;;;;14.93;4.63;;;;;;;;;;5072022;28;20085;-85
2022/05/15 09:29:38;;;;;;;12.23;3.58;;;;;;;;;;5071573;28;20089;-86
2022/05/15 09:32:06;;;;;;;14.98;4.38;;;;;;;;;;5054902;28;20040;-87
2022/05/15 09:34:34;;;;;;;12.05;3.83;;;;;;;;;;5055057;28;20082;-86
2022/05/15 09:39:46;;;;;;;12.93;4.22;;;;;;;;;;5072147;28;20474;-86
2022/05/15 09:45:16;;;;;;;14.48;4.18;;;;;;;;;;5070904;28;20139;-87
2022/05/15 09:47:43;;;;;;;13.95;4.25;;;;;;;;;;5055607;28;20386;-88
2022/05/15 09:50:10;;;;;;;11.80;4.07;;;;;;;;;;5055453;28;20538;-88
2022/05/15 09:52:39;;;;;;;14.52;4.50;;;;;;;;;;5054950;28;20536;-85
2022/05/15 09:55:11;;;;;;;13.02;4.10;;;;;;;;;;5054477;28;20058;-84
2022/05/15 09:57:37;;;;;;;11.93;4.18;;;;;;;;;;5055208;28;20137;-86
2022/05/15 10:00:07;;;;;;;13.70;4.43;;;;;;;;;;5055262;28;20040;-86
2022/05/15 10:02:38;;;;;;;10.80;3.55;;;;;;;;;;5055248;28;20039;-89
2022/05/15 10:05:11;;;;;;;11.80;3.67;;;;;;;;;;5055198;28;20044;-85
2022/05/15 10:07:46;;;;;;;13.60;4.28;;;;;;;;;;5055843;28;20139;-85
2022/05/15 10:10:17;;;;;;;14.25;4.40;;;;;;;;;;5054556;28;20052;-86
2022/05/15 10:12:48;;;;;;;11.75;4.35;;;;;;;;;;5054954;28;20074;-86
2022/05/15 10:15:15;;;;;;;14.82;5.00;;;;;;;;;;5058412;28;20036;-85
2022/05/15 10:18:08;;;;;;;14.45;4.50;;;;;;;;;;5058637;28;20040;-88
2022/05/15 10:20:38;;;;;;;10.85;4.03;;;;;;;;;;5054836;28;20126;-86
2022/05/15 10:23:07;;;;;;;10.45;4.38;;;;;;;;;;5074227;28;20521;-87
2022/05/15 10:25:49;;;;;;;13.50;4.30;;;;;;;;;;5057844;28;20044;-85
2022/05/15 10:28:38;;;;;;;13.73;4.55;;;;;;;;;;5059350;28;20499;-88
2022/05/15 10:31:12;;;;;;;12.70;4.88;;;;;;;;;;5053786;28;20046;-88
2022/05/15 10:33:40;;;;;;;12.35;4.05;;;;;;;;;;5054443;28;20408;-87
2022/05/15 10:36:18;;;;;;;17.05;4.88;;;;;;;;;;5054051;28;20047;-84
2022/05/15 10:38:50;;;;;;;13.23;5.15;;;;;;;;;;5055763;28;20064;-86
2022/05/15 10:41:19;;;;;;;12.32;4.18;;;;;;;;;;5055329;28;20076;-88
2022/05/15 10:43:58;;;;;;;17.13;4.40;;;;;;;;;;5053885;28;20048;-88
2022/05/15 10:46:24;;;;;;;11.30;4.38;;;;;;;;;;5054684;28;20426;-84
2022/05/15 10:48:56;;;;;;;10.02;4.30;;;;;;;;;;5054015;28;20097;-85
2022/05/15 10:51:35;;;;;;;14.50;4.90;;;;;;;;;;5054496;28;20048;-84
2022/05/15 10:57:22;;;;;;;12.13;4.35;;;;;;;;;;5054217;28;20435;-87
2022/05/15 10:59:54;;;;;;;14.30;4.05;;;;;;;;;;5037719;28;20047;-86
2022/05/15 11:02:32;;;;;;;14.15;4.65;;;;;;;;;;5053821;28;20125;-87
2022/05/15 11:05:01;;;;;;;14.70;4.43;;;;;;;;;;5067295;28;20044;-85
2022/05/15 11:07:32;;;;;;;12.02;4.38;;;;;;;;;;5057348;28;20174;-86
2022/05/15 11:10:04;;;;;;;14.02;4.57;;;;;;;;;;5057386;28;20114;-88
2022/05/15 11:12:33;;;;;;;10.15;3.78;;;;;;;;;;5057924;28;20063;-87
2022/05/15 11:15:26;;;;;;;9.82;3.90;;;;;;;;;;5076828;28;20044;-88
2022/05/15 11:18:06;;;;;;;13.35;4.35;;;;;;;;;;5037822;28;20461;-88
2022/05/15 11:20:32;;;;;;;;;;;;;;;;;;5062005;28;20048;-84
2022/05/15 11:23:04;;;;;;;12.77;4.38;;;;;;;;;;5060653;28;19927;-87
2022/05/15 11:25:36;;;;;;;11.15;4.38;;;;;;;;;;5060675;28;20076;-87
2022/05/15 11:28:15;;;;;;;12.13;4.00;;;;;;;;;;5077719;28;20042;-84
2022/05/15 11:30:42;;;;;;;15.02;4.35;;;;;;;;;;5077761;28;20455;-87
2022/05/15 11:33:10;;;;;;;17.50;4.60;;;;;;;;;;5050417;28;20037;-86
2022/05/15 11:35:36;;;;;;;15.32;4.82;;;;;;;;;;5043165;28;20044;-87
2022/05/15 11:38:18;;;;;;;15.13;6.00;;;;;;;;;;5041419;28;20036;-87
2022/05/15 11:40:49;;;;;;;13.52;4.97;;;;;;;;;;5042319;28;20043;-87
2022/05/15 11:43:30;;;;;;;10.60;3.58;;;;;;;;;;5040878;28;20044;-84
2022/05/15 11:46:01;;;;;;;15.95;4.03;;;;;;;;;;5057509;28;20048;-85
2022/05/15 11:48:27;;;;;;;11.60;3.95;;;;;;;;;;5041160;28;20086;-83
2022/05/15 11:51:04;;;;;;;10.98;3.75;;;;;;;;;;5059463;28;20040;-87
2022/05/15 11:53:32;;;;;;;11.40;3.83;;;;;;;;;;5057987;28;20384;-87
2022/05/15 11:55:59;;;;;;;12.75;4.13;;;;;;;;;;5042305;28;20040;-85
2022/05/15 11:58:39;;;;;;;13.38;4.30;;;;;;;;;;5044854;28;20503;-89
2022/05/15 12:01:09;;;;;;;10.88;3.80;;;;;;;;;;5053953;28;20044;-85
2022/05/15 12:03:34;;;;;;;10.73;4.00;;;;;;;;;;5056052;28;20498;-85
2022/05/15 12:06:14;;;;;;;10.60;3.70;;;;;;;;;;5055746;28;20119;-86
2022/05/15 12:08:42;;;;;;;12.77;4.00;;;;;;;;;;5038653;28;20056;-87
2022/05/15 12:11:28;;;;;;;13.93;4.63;;;;;;;;;;5055988;28;20048;-88
2022/05/15 12:13:55;;;;;;;13.13;4.13;;;;;;;;;;5060777;28;20067;-88
2022/05/15 12:16:20;;;;;;;14.88;4.40;;;;;;;;;;5039187;28;20079;-84
2022/05/15 12:18:59;;;;;;;9.48;3.90;;;;;;;;;;5037970;28;20083;-86
2022/05/15 12:21:30;;;;;;;10.00;3.95;;;;;;;;;;5056025;28;20041;-85
2022/05/15 12:26:49;;;;;;;13.65;4.60;;;;;;;;;;5055532;28;20040;-88
2022/05/15 12:29:25;;;;;;;16.60;4.22;;;;;;;;;;5064023;28;20119;-85
2022/05/15 12:31:51;;;;;;;10.15;3.58;;;;;;;;;;5054582;28;20037;-84
2022/05/15 12:34:31;;;;;;;10.13;4.10;;;;;;;;;;5055619;28;20093;-92
2022/05/15 12:37:00;;;;;;;10.88;3.55;;;;;;;;;;5068160;28;20086;-83
2022/05/15 12:39:30;;;;;;;8.07;3.72;;;;;;;;;;5052749;28;20127;-89
2022/05/15 12:42:01;;;;;;;8.68;3.75;;;;;;;;;;5037318;28;20076;-82
2022/05/15 12:44:27;;;;;;;;;;;;;;;;;;5036348;28;20036;-89
2022/05/15 12:46:55;;;;;;;9.35;3.63;;;;;;;;;;5038545;28;19916;-84
2022/05/15 12:49:39;;;;;;;8.32;3.45;;;;;;;;;;5038174;28;20496;-85
2022/05/15 12:52:18;;;;;;;8.88;3.60;;;;;;;;;;5035495;28;20044;-84
2022/05/15 12:54:46;;;;;;;6.97;3.90;;;;;;;;;;5063560;28;20567;-89
2022/05/15 12:57:17;;;;;;;24.20;4.80;;;;;;;;;;5054864;28;20291;-87
2022/05/15 12:59:42;;;;;;;;;;;;;;;;;;5055627;28;20044;-84
2022/05/15 13:02:21;;;;;;;13.32;3.88;;;;;;;;;;5038609;28;19916;-84
2022/05/15 13:04:49;;;;;;;10.90;3.38;;;;;;;;;;5038157;28;20044;-83
2022/05/15 13:07:15;;;;;;;7.90;3.25;;;;;;;;;;5056924;28;20415;-90
2022/05/15 13:09:41;;;;;;;8.80;3.22;;;;;;;;;;5040722;28;20076;-84
2022/05/15 13:12:11;;;;;;;9.98;3.50;;;;;;;;;;5040311;28;20122;-85
2022/05/15 13:14:45;;;;;;;9.48;3.28;;;;;;;;;;5041970;28;20037;-86
2022/05/15 13:17:12;;;;;;;6.78;3.28;;;;;;;;;;5065094;28;20087;-85
2022/05/15 13:19:42;;;;;;;8.00;2.97;;;;;;;;;;5040133;28;20037;-83
2022/05/15 13:22:12;;;;;;;8.88;2.72;;;;;;;;;;5040354;28;20040;-87
2022/05/15 13:24:41;;;;;;;12.73;3.67;;;;;;;;;;5075106;28;20032;-84
2022/05/15 13:27:07;;;;;;;7.50;2.88;;;;;;;;;;5073555;28;20131;-85
2022/05/15 13:29:35;;;;;;;10.43;3.35;;;;;;;;;;5065932;28;20040;-87
2022/05/15 13:32:02;;;;;;;6.45;2.80;;;;;;;;;;5056556;28;20032;-85
2022/05/15 13:34:29;;;;;;;7.22;2.65;;;;;;;;;;5073127;28;20048;-83
2022/05/15 13:36:59;;;;;;;8.07;2.95;;;;;;;;;;5039201;28;20048;-85
2022/05/15 13:45:03;;;;;;;7.80;3.13;;;;;;;;;;5055934;28;20450;-86
2022/05/15 13:47:29;;;;;;;10.45;3.45;;;;;;;;;;5056165;28;20479;-84
2022/05/15 13:49:55;;;;;;;10.15;3.90;;;;;;;;;;5056109;28;20045;-86
2022/05/15 13:52:26;;;;;;;7.82;2.95;;;;;;;;;;5058155;28;20062;-82
2022/05/15 13:54:55;;;;;;;8.70;3.10;;;;;;;;;;5039096;28;20445;-83
2022/05/15 13:57:21;;;;;;;12.27;3.08;;;;;;;;;;5062662;28;20056;-81
2022/05/15 13:59:50;;;;;;;9.13;3.00;;;;;;;;;;5060580;28;20041;-82
2022/05/15 14:02:17;;;;;;;9.73;3.20;;;;;;;;;;5037307;28;20094;-85
2022/05/15 14:05:09;;;;;;;9.55;3.15;;;;;;;;;;5054381;28;20080;-82
2022/05/15 14:07:40;;;;;;;8.52;3.00;;;;;;;;;;5036285;28;20044;-83
2022/05/15 14:10:18;;;;;;;8.07;2.60;;;;;;;;;;5054670;28;20040;-81
2022/05/15 14:12:53;;;;;;;7.57;2.95;;;;;;;;;;5053410;28;20075;-87
2022/05/15 14:15:40;;;;;;;5.80;2.72;;;;;;;;;;5037827;28;20067;-86
2022/05/15 14:18:11;;;;;;;7.53;2.80;;;;;;;;;;5054327;28;20101;-83
2022/05/15 14:20:46;;;;;;;7.70;2.90;;;;;;;;;;5037533;28;20037;-84
2022/05/15 14:23:13;;;;;;;7.85;2.53;;;;;;;;;;5054063;28;20040;-83
2022/05/15 14:25:41;;;;;;;6.15;2.60;;;;;;;;;;5037442;28;20082;-83
2022/05/15 14:28:08;;;;;;;8.73;3.00;;;;;;;;;;5037491;28;20518;-87
2022/05/15 14:30:34;;;;;;;7.93;2.97;;;;;;;;;;5037343;28;20488;-82
2022/05/15 14:33:01;;;;;;;8.82;2.90;;;;;;;;;;5044067;28;20387;-85
2022/05/15 14:35:31;;;;;;;7.18;2.55;;;;;;;;;;5071336;28;20032;-82
2022/05/15 14:37:58;;;;;;;8.13;2.85;;;;;;;;;;5039130;28;20104;-89
2022/05/15 14:40:24;;;;;;;8.73;2.75;;;;;;;;;;5074918;28;20436;-83
2022/05/15 14:42:50;;;;;;;6.45;2.58;;;;;;;;;;5074929;28;20048;-83
2022/05/15 14:45:19;;;;;;;6.97;2.92;;;;;;;;;;5055124;28;20477;-86
2022/05/15 14:47:48;;;;;;;10.10;3.28;;;;;;;;;;5071137;28;20040;-84
2022/05/15 14:50:15;;;;;;;8.60;2.83;;;;;;;;;;5038640;28;20067;-83
2022/05/15 14:52:41;;;;;;;9.77;2.80;;;;;;;;;;5036283;28;20037;-84
2022/05/15 14:55:08;;;;;;;6.40;2.65;;;;;;;;;;5042213;28;20044;-82
2022/05/15 14:57:34;;;;;;;6.88;2.53;;;;;;;;;;5065826;28;20119;-89
2022/05/15 15:00:01;;;;;;;6.22;2.58;;;;;;;;;;5075082;28;20048;-85
2022/05/15 15:02:28;;;;;;;8.80;2.92;;;;;;;;;;5059266;28;20052;-83
2022/05/15 15:04:54;;;;;;;8.50;2.50;;;;;;;;;;5058015;28;20408;-82
2022/05/15 15:07:21;;;;;;;8.02;2.58;;;;;;;;;;5062420;28;20036;-84
2022/05/15 15:09:46;;;;;;;11.85;3.13;;;;;;;;;;5061736;28;20037;-84
2022/05/15 15:12:13;;;;;;;7.60;2.50;;;;;;;;;;5060728;28;20049;-84
2022/05/15 15:14:39;;;;;;;8.18;2.92;;;;;;;;;;5060657;28;20037;-82
2022/05/15 15:17:05;;;;;;;6.18;2.28;;;;;;;;;;5036497;28;20049;-86